createdAt,value
2019-01-25T00:04:44.622Z,87.26
2019-01-25T00:07:28.326Z,87.85
2019-01-25T00:10:21.440Z,88.12
2019-01-25T00:15:41.630Z,88.31
2019-01-25T00:18:17.912Z,88.49
2019-01-25T00:24:28.381Z,88.86
2019-01-25T00:26:59.437Z,89.02
2019-01-25T00:29:28.494Z,87.74
2019-01-25T00:31:57.551Z,87.39
2019-01-25T00:34:26.622Z,87.20
2019-01-25T00:36:56.636Z,88.07
2019-01-25T00:39:29.745Z,88.97
2019-01-25T00:42:03.645Z,89.26
2019-01-25T00:44:32.717Z,88.77
2019-01-25T00:47:01.834Z,89.33
2019-01-25T00:49:30.856Z,89.35
2019-01-25T00:52:09.819Z,90.13
2019-01-25T00:54:38.897Z,89.76
2019-01-25T00:57:07.955Z,89.55
2019-01-25T00:59:37.023Z,89.75
2019-01-25T01:02:06.087Z,90.55
2019-01-25T01:04:35.194Z,90.70
2019-01-25T01:07:06.296Z,90.80
2019-01-25T01:09:35.739Z,90.89
2019-01-25T01:15:03.798Z,90.43
2019-01-25T01:17:32.872Z,90.11
2019-01-25T01:20:01.979Z,89.50
2019-01-25T01:22:31.045Z,90.24
2019-01-25T01:25:00.218Z,90.06
2019-01-25T01:27:29.244Z,90.64
2019-01-25T01:32:45.985Z,91.76
2019-01-25T01:35:28.171Z,91.99
2019-01-25T01:37:57.244Z,92.05
2019-01-25T01:40:28.211Z,91.70
2019-01-25T01:42:57.287Z,90.96
2019-01-25T01:45:41.382Z,91.18
2019-01-25T01:48:10.454Z,91.86
2019-01-25T01:50:39.505Z,91.18
2019-01-25T01:53:09.494Z,91.15
2019-01-25T01:55:41.915Z,91.10
2019-01-25T01:58:25.690Z,90.96
2019-01-25T02:00:54.801Z,91.42
2019-01-25T02:03:27.418Z,90.59
2019-01-25T02:05:56.485Z,90.22
2019-01-25T02:08:25.937Z,89.35
2019-01-25T02:10:57.925Z,89.11
2019-01-25T02:13:51.724Z,88.95
2019-01-25T02:18:57.251Z,88.41
2019-01-25T02:21:28.240Z,89.05
2019-01-25T02:23:57.363Z,89.65
2019-01-25T02:26:28.419Z,89.40
2019-01-25T02:28:58.403Z,89.49
2019-01-25T02:34:06.819Z,88.95
2019-01-25T02:36:35.887Z,87.93
2019-01-25T02:39:04.952Z,88.44
2019-01-25T02:41:34.005Z,88.34
2019-01-25T02:44:03.065Z,88.97
2019-01-25T02:46:35.487Z,89.16
2019-01-25T02:49:04.544Z,88.76
2019-01-25T02:51:46.303Z,88.78
2019-01-25T02:54:28.799Z,89.21
2019-01-25T02:56:58.081Z,89.05
2019-01-25T03:02:06.838Z,89.23
2019-01-25T03:04:39.519Z,89.17
2019-01-25T03:07:08.581Z,88.60
2019-01-25T03:09:40.896Z,88.52
2019-01-25T03:14:19.688Z,88.94
2019-01-25T03:16:48.784Z,89.03
2019-01-25T03:19:18.775Z,87.95
2019-01-25T03:21:47.831Z,88.04
2019-01-25T03:24:20.671Z,88.29
2019-01-25T03:26:49.725Z,87.66
2019-01-25T03:29:24.211Z,87.73
2019-01-25T03:31:53.331Z,87.28
2019-01-25T03:37:09.434Z,86.77
2019-01-25T03:39:39.391Z,87.53
2019-01-25T03:42:08.516Z,87.14
2019-01-25T03:44:42.908Z,86.70
2019-01-25T03:47:11.979Z,86.42
2019-01-25T03:49:42.997Z,86.44
2019-01-25T03:52:15.823Z,87.11
2019-01-25T03:54:44.876Z,86.07
2019-01-25T03:59:50.395Z,84.97
2019-01-25T04:02:21.492Z,85.45
2019-01-25T04:04:50.559Z,85.21
2019-01-25T04:07:19.616Z,85.13
2019-01-25T04:09:49.044Z,85.28
2019-01-25T04:12:19.114Z,84.67
2019-01-25T04:14:48.211Z,84.54
2019-01-25T04:17:17.301Z,85.11
2019-01-25T04:19:46.364Z,84.78
2019-01-25T04:22:18.497Z,83.99
2019-01-25T04:24:47.556Z,84.05
2019-01-25T04:27:20.994Z,84.43
2019-01-25T04:29:51.684Z,84.72
2019-01-25T04:32:39.096Z,84.29
2019-01-25T04:35:08.315Z,83.99
2019-01-25T04:37:37.391Z,83.55
2019-01-25T04:40:08.154Z,83.46
2019-01-25T04:42:37.220Z,82.86
2019-01-25T04:45:06.268Z,81.44
2019-01-25T04:47:35.348Z,82.25
2019-01-25T04:50:05.378Z,82.22
2019-01-25T04:52:34.805Z,82.83
2019-01-25T04:55:18.275Z,82.37
2019-01-25T04:57:49.325Z,81.76
2019-01-25T05:00:18.346Z,81.82
2019-01-25T05:02:52.413Z,80.82
2019-01-25T05:05:21.493Z,81.05
2019-01-25T05:07:50.580Z,81.15
2019-01-25T05:10:19.654Z,81.82
2019-01-25T05:12:56.616Z,81.93
2019-01-25T05:15:53.008Z,81.85
2019-01-25T05:18:22.912Z,81.55
2019-01-25T05:20:55.181Z,81.55
2019-01-25T05:23:24.246Z,81.25
2019-01-25T05:28:32.288Z,81.96
2019-01-25T05:31:01.364Z,81.13
2019-01-25T05:33:30.411Z,81.40
2019-01-25T05:36:06.849Z,80.96
2019-01-25T05:41:13.059Z,81.98
2019-01-25T05:43:52.890Z,81.05
2019-01-25T05:46:21.959Z,81.87
2019-01-25T05:48:52.947Z,82.09
2019-01-25T05:51:22.037Z,82.34
2019-01-25T05:53:55.987Z,82.21
2019-01-25T05:57:02.816Z,82.60
2019-01-25T06:02:10.538Z,82.48
2019-01-25T06:07:18.250Z,82.80
2019-01-25T06:12:26.917Z,82.91
2019-01-25T06:14:56.113Z,82.73
2019-01-25T06:17:26.180Z,83.04
2019-01-25T06:19:57.245Z,83.49
2019-01-25T06:22:27.239Z,83.07
2019-01-25T06:24:57.975Z,83.92
2019-01-25T06:27:27.041Z,84.57
2019-01-25T06:32:35.261Z,85.51
2019-01-25T06:35:04.344Z,85.05
2019-01-25T06:37:34.388Z,85.20
2019-01-25T06:40:18.993Z,85.62
2019-01-25T06:42:53.521Z,85.51
2019-01-25T06:47:59.820Z,85.33
2019-01-25T06:50:28.886Z,84.76
2019-01-25T06:52:57.954Z,85.60
2019-01-25T06:55:27.007Z,85.53
2019-01-25T07:00:34.613Z,85.99
2019-01-25T07:03:18.151Z,86.78
2019-01-25T07:06:12.385Z,86.42
2019-01-25T07:08:41.432Z,86.35
2019-01-25T07:14:05.103Z,86.70
2019-01-25T07:19:50.859Z,86.60
2019-01-25T07:22:27.235Z,86.46
2019-01-25T07:24:57.302Z,86.52
2019-01-25T07:30:05.165Z,85.51
2019-01-25T07:35:15.158Z,86.49
2019-01-25T07:37:45.174Z,86.62
2019-01-25T07:40:16.218Z,86.34
2019-01-25T07:42:49.853Z,86.54
2019-01-25T07:45:20.883Z,86.79
2019-01-25T07:47:49.969Z,87.11
2019-01-25T07:50:19.108Z,87.63
2019-01-25T07:52:48.191Z,88.16
2019-01-25T07:55:28.230Z,88.50
2019-01-25T07:58:01.971Z,88.00
2019-01-25T08:00:31.003Z,88.79
2019-01-25T08:03:00.072Z,88.96
2019-01-25T08:05:29.166Z,88.69
2019-01-25T08:07:58.218Z,89.15
2019-01-25T08:10:27.293Z,89.04
2019-01-25T08:12:56.409Z,88.39
2019-01-25T08:15:25.459Z,88.99
2019-01-25T08:17:56.486Z,89.42
2019-01-25T08:20:25.534Z,89.58
2019-01-25T08:23:13.729Z,89.21
2019-01-25T08:25:45.162Z,88.97
2019-01-25T08:28:16.220Z,89.20
2019-01-25T08:30:55.274Z,89.50
2019-01-25T08:33:24.414Z,89.50
2019-01-25T08:35:58.979Z,88.51
2019-01-25T08:38:33.436Z,88.14
2019-01-25T08:43:55.948Z,86.71
2019-01-25T08:46:30.545Z,87.10
2019-01-25T08:51:48.077Z,86.67
2019-01-25T08:54:22.629Z,86.68
2019-01-25T08:56:57.212Z,85.17
2019-01-25T08:59:31.729Z,85.08
2019-01-25T09:02:20.544Z,84.15
2019-01-25T09:05:09.640Z,84.25
2019-01-25T09:07:54.488Z,84.60
2019-01-25T09:10:28.954Z,84.10
2019-01-25T09:13:03.532Z,85.38
2019-01-25T09:15:38.201Z,85.14
2019-01-25T09:18:26.863Z,85.29
2019-01-25T09:21:02.056Z,84.64
2019-01-25T09:23:37.127Z,85.94
2019-01-25T09:28:47.467Z,86.46
2019-01-25T09:31:17.431Z,87.22
2019-01-25T09:33:47.028Z,86.42
2019-01-25T09:36:16.126Z,84.67
2019-01-25T09:38:45.376Z,85.51
2019-01-25T09:43:50.987Z,84.76
2019-01-25T09:46:21.520Z,84.87
2019-01-25T09:48:50.616Z,81.73
2019-01-25T09:51:20.908Z,82.02
2019-01-25T09:53:50.393Z,83.18
2019-01-25T09:56:21.399Z,81.96
2019-01-25T09:59:00.981Z,82.47
2019-01-25T10:01:37.238Z,81.98
2019-01-25T10:06:49.376Z,80.74
2019-01-25T10:09:20.983Z,81.24
2019-01-25T10:11:50.186Z,81.85
2019-01-25T10:14:21.794Z,80.86
2019-01-25T10:16:51.617Z,82.28
2019-01-25T10:19:36.795Z,82.57
2019-01-25T10:24:44.264Z,81.19
2019-01-25T10:27:14.227Z,80.90
2019-01-25T10:29:43.571Z,77.71
2019-01-25T10:34:48.359Z,75.21
2019-01-25T10:39:57.182Z,73.55
2019-01-25T10:42:29.322Z,73.03
2019-01-25T10:44:58.683Z,74.00
2019-01-25T10:47:28.201Z,73.37
2019-01-25T10:49:57.291Z,73.76
2019-01-25T10:52:27.667Z,73.73
2019-01-25T10:54:56.852Z,72.99
2019-01-25T10:57:30.843Z,75.06
2019-01-25T10:59:59.902Z,73.96
2019-01-25T11:02:36.866Z,72.39
2019-01-25T11:05:11.379Z,71.84
2019-01-25T11:07:40.499Z,70.23
2019-01-25T11:10:25.660Z,69.48
2019-01-25T11:13:00.782Z,71.52
2019-01-25T11:15:24.536Z,72.68
2019-01-25T11:23:15.411Z,71.10
2019-01-25T11:25:47.479Z,69.67
2019-01-25T11:28:16.756Z,71.08
2019-01-25T11:30:53.626Z,70.37
2019-01-25T11:33:22.735Z,68.87
2019-01-25T11:35:51.797Z,65.81
2019-01-25T11:38:21.193Z,67.70
2019-01-25T11:43:26.880Z,69.33
2019-01-25T11:45:56.663Z,69.23
2019-01-25T11:48:25.717Z,69.32
2019-01-25T11:50:55.197Z,69.28
2019-01-25T11:53:24.620Z,68.22
2019-01-25T11:55:53.667Z,68.06
2019-01-25T11:58:22.732Z,68.47
2019-01-25T12:00:53.985Z,66.94
2019-01-25T12:03:23.521Z,64.14
2019-01-25T12:05:54.727Z,62.00
2019-01-25T12:08:24.122Z,62.57
2019-01-25T12:10:56.902Z,62.54
2019-01-25T12:13:31.694Z,62.57
2019-01-25T12:16:19.826Z,64.49
2019-01-25T12:18:49.351Z,62.70
2019-01-25T12:21:20.960Z,60.12
2019-01-25T12:23:50.012Z,59.60
2019-01-25T12:26:20.203Z,60.52
2019-01-25T12:28:54.284Z,61.34
2019-01-25T12:33:59.595Z,63.08
2019-01-25T12:36:29.264Z,61.94
2019-01-25T12:39:04.049Z,64.59
2019-01-25T12:44:19.477Z,64.87
2019-01-25T12:46:57.086Z,65.72
2019-01-25T12:49:32.041Z,67.47
2019-01-25T12:52:13.091Z,68.20
2019-01-25T12:54:43.993Z,68.37
2019-01-25T12:57:14.209Z,69.38
2019-01-25T12:59:52.500Z,69.00
2019-01-25T13:02:26.159Z,69.66
2019-01-25T13:04:56.512Z,70.40
2019-01-25T13:07:26.572Z,69.64
2019-01-25T13:10:07.160Z,69.97
2019-01-25T13:12:47.495Z,70.00
2019-01-25T13:18:12.086Z,66.22
2019-01-25T13:20:43.571Z,67.60
2019-01-25T13:23:12.694Z,66.62
2019-01-25T13:25:49.114Z,67.50
2019-01-25T13:28:21.405Z,68.07
2019-01-25T13:30:51.030Z,68.81
2019-01-25T13:33:20.689Z,68.37
2019-01-25T13:35:59.139Z,69.61
2019-01-25T13:38:28.399Z,70.66
2019-01-25T13:41:00.394Z,67.30
2019-01-25T13:43:29.482Z,67.50
2019-01-25T13:46:00.457Z,67.96
2019-01-25T13:48:29.815Z,69.79
2019-01-25T13:51:00.859Z,70.36
2019-01-25T13:53:30.511Z,71.57
2019-01-25T13:56:00.871Z,71.85
2019-01-25T13:58:30.040Z,73.71
2019-01-25T14:01:04.113Z,72.87
2019-01-25T14:03:33.458Z,73.55
2019-01-25T14:06:03.113Z,73.53
2019-01-25T14:08:41.326Z,74.52
2019-01-25T14:11:20.995Z,75.11
2019-01-25T14:14:15.184Z,75.72
2019-01-25T14:16:45.424Z,77.24
2019-01-25T14:19:14.492Z,77.67
2019-01-25T14:21:44.244Z,79.22
2019-01-25T14:24:16.614Z,79.79
2019-01-25T14:26:42.978Z,80.55
2019-01-25T14:29:12.347Z,78.42
2019-01-25T14:31:42.422Z,76.68
2019-01-25T14:34:11.480Z,75.77
2019-01-25T14:36:40.974Z,74.56
2019-01-25T14:39:10.565Z,74.21
2019-01-25T14:41:40.663Z,74.33
2019-01-25T14:44:11.021Z,72.90
2019-01-25T14:46:40.554Z,71.22
2019-01-25T14:49:10.578Z,70.35
2019-01-25T14:51:39.805Z,70.23
2019-01-25T14:54:08.860Z,68.26
2019-01-25T14:56:38.015Z,67.80
2019-01-25T14:59:07.668Z,67.81
2019-01-25T15:01:36.728Z,66.85
2019-01-25T15:04:07.113Z,66.39
2019-01-25T15:06:36.152Z,65.96
2019-01-25T15:09:05.685Z,66.15
2019-01-25T15:11:35.309Z,66.24
2019-01-25T15:14:04.387Z,66.19
2019-01-25T15:16:33.924Z,66.28
2019-01-25T15:19:03.798Z,67.26
2019-01-25T15:21:33.835Z,67.87
2019-01-25T15:24:13.584Z,68.65
2019-01-25T15:26:42.630Z,68.70
2019-01-25T15:29:12.604Z,69.78
2019-01-25T15:31:42.208Z,69.87
2019-01-25T15:34:11.267Z,70.82
2019-01-25T15:36:40.543Z,71.21
2019-01-25T15:39:11.572Z,70.86
2019-01-25T15:41:40.648Z,70.76
2019-01-25T15:44:10.870Z,71.00
2019-01-25T15:46:39.956Z,70.93
2019-01-25T15:49:09.539Z,71.07
2019-01-25T15:51:39.046Z,71.30
2019-01-25T15:54:10.046Z,71.62
2019-01-25T15:56:39.478Z,72.23
2019-01-25T16:01:45.787Z,72.67
2019-01-25T16:04:15.866Z,73.03
2019-01-25T16:06:55.557Z,72.79
2019-01-25T16:09:39.029Z,74.12
2019-01-25T16:14:57.404Z,74.22
2019-01-25T16:17:38.335Z,74.14
2019-01-25T16:20:14.928Z,74.14
2019-01-25T16:22:43.990Z,74.98
2019-01-25T16:25:14.737Z,74.58
2019-01-25T16:27:44.082Z,75.14
2019-01-25T16:30:18.063Z,75.69
2019-01-25T16:32:47.144Z,74.36
2019-01-25T16:35:16.211Z,75.04
2019-01-25T16:37:45.656Z,73.92
2019-01-25T16:40:15.830Z,73.62
2019-01-25T16:42:45.086Z,73.49
2019-01-25T16:47:57.944Z,73.87
2019-01-25T16:50:29.193Z,73.43
2019-01-25T16:52:58.320Z,74.10
2019-01-25T16:55:28.289Z,74.37
2019-01-25T16:58:25.931Z,74.48
2019-01-25T17:01:07.471Z,74.46
2019-01-25T17:03:48.969Z,75.30
2019-01-25T17:06:27.887Z,75.31
2019-01-25T17:11:45.892Z,76.05
2019-01-25T17:14:33.178Z,76.10
2019-01-25T17:17:20.890Z,75.94
2019-01-25T17:19:50.045Z,75.05
2019-01-25T17:22:19.691Z,74.52
2019-01-25T17:24:49.680Z,75.29
2019-01-25T17:27:24.186Z,75.59
2019-01-25T17:29:53.445Z,74.79
2019-01-25T17:33:18.938Z,75.31
2019-01-25T17:35:50.682Z,75.29
2019-01-25T17:38:19.774Z,74.83
2019-01-25T17:40:50.046Z,74.46
2019-01-25T17:46:02.745Z,73.94
2019-01-25T17:48:50.584Z,73.74
2019-01-25T17:51:21.621Z,73.77
2019-01-25T17:53:52.460Z,74.22
2019-01-25T17:56:25.002Z,74.40
2019-01-25T17:58:54.165Z,74.16
2019-01-25T18:01:29.587Z,73.79
2019-01-25T18:03:58.635Z,74.14
2019-01-25T18:06:27.744Z,74.70
2019-01-25T18:08:57.317Z,74.59
2019-01-25T18:14:07.673Z,74.11
2019-01-25T18:16:41.724Z,73.89
2019-01-25T18:21:49.871Z,74.08
2019-01-25T18:26:57.117Z,73.36
2019-01-25T18:29:30.910Z,72.84
2019-01-25T18:31:59.975Z,72.68
2019-01-25T18:34:29.811Z,72.88
2019-01-25T18:36:58.903Z,72.73
2019-01-25T18:39:33.952Z,73.37
2019-01-25T18:42:02.979Z,72.96
2019-01-25T18:44:32.982Z,72.80
2019-01-25T18:47:02.471Z,72.72
2019-01-25T18:49:33.522Z,72.35
2019-01-25T18:52:03.090Z,72.05
2019-01-25T18:57:07.539Z,72.14
2019-01-25T18:59:36.977Z,73.03
2019-01-25T19:02:06.324Z,73.47
2019-01-25T19:07:12.320Z,74.31
2019-01-25T19:09:54.409Z,74.39
2019-01-25T19:12:40.111Z,74.28
2019-01-25T19:15:24.632Z,74.66
2019-01-25T19:17:54.127Z,75.11
2019-01-25T19:20:40.423Z,75.35
2019-01-25T19:23:10.567Z,75.57
2019-01-25T19:25:40.065Z,75.79
2019-01-25T19:28:09.750Z,75.81
2019-01-25T19:30:44.770Z,76.09
2019-01-25T19:35:51.100Z,76.42
2019-01-25T19:38:24.712Z,75.61
2019-01-25T19:40:53.944Z,74.98
2019-01-25T19:43:40.539Z,74.96
2019-01-25T19:51:29.991Z,75.81
2019-01-25T19:53:59.083Z,76.45
2019-01-25T19:56:30.061Z,76.48
2019-01-25T19:59:00.127Z,76.41
2019-01-25T20:02:42.685Z,76.43
2019-01-25T20:05:15.582Z,76.44
2019-01-25T20:07:45.580Z,76.40
2019-01-25T20:10:15.116Z,76.63
2019-01-25T20:12:44.186Z,76.77
2019-01-25T20:15:19.342Z,76.96
2019-01-25T20:17:44.086Z,76.96
2019-01-25T20:20:14.107Z,77.15
2019-01-25T20:22:45.144Z,77.07
2019-01-25T20:25:15.363Z,76.88
2019-01-25T20:30:30.790Z,77.07
2019-01-25T20:33:07.093Z,76.76
2019-01-25T20:35:40.669Z,76.82
2019-01-25T20:38:12.695Z,77.15
2019-01-25T20:40:42.009Z,78.21
2019-01-25T20:43:11.147Z,78.36
2019-01-25T20:45:40.574Z,79.35
2019-01-25T20:50:52.047Z,79.21
2019-01-25T20:53:21.407Z,78.77
2019-01-25T20:55:58.404Z,78.98
2019-01-25T20:58:30.930Z,78.82
2019-01-25T21:01:00.112Z,78.90
2019-01-25T21:03:30.381Z,78.66
2019-01-25T21:05:59.496Z,78.48
2019-01-25T21:08:28.550Z,78.29
2019-01-25T21:10:58.100Z,78.50
2019-01-25T21:13:36.751Z,78.37
2019-01-25T21:16:38.203Z,77.74
2019-01-25T21:19:25.411Z,77.41
2019-01-25T21:24:46.221Z,76.65
2019-01-25T21:30:22.291Z,76.71
2019-01-25T21:35:42.981Z,76.20
2019-01-25T21:38:21.450Z,75.46
2019-01-25T21:41:02.580Z,75.52
2019-01-25T21:46:18.649Z,75.13
2019-01-25T21:49:17.649Z,75.19
2019-01-25T21:52:16.037Z,75.31
2019-01-25T21:54:53.026Z,75.46
2019-01-25T22:00:08.228Z,74.47
2019-01-25T22:02:43.953Z,74.48
2019-01-25T22:05:32.169Z,74.60
2019-01-25T22:08:22.019Z,74.00
2019-01-25T22:13:52.923Z,74.33
2019-01-25T22:16:32.302Z,75.23
2019-01-25T22:19:11.206Z,75.10
2019-01-25T22:21:44.647Z,75.52
2019-01-25T22:27:02.026Z,75.85
2019-01-25T22:29:37.801Z,75.40
2019-01-25T22:32:11.014Z,75.74
2019-01-25T22:34:46.586Z,75.81
2019-01-25T22:37:32.193Z,75.97
2019-01-25T22:40:05.823Z,75.73
2019-01-25T22:42:38.869Z,75.28
2019-01-25T22:45:14.403Z,75.49
2019-01-25T22:47:48.092Z,74.89
2019-01-25T22:50:25.626Z,76.03
2019-01-25T22:53:00.337Z,75.70
2019-01-25T22:55:39.175Z,75.64
2019-01-25T22:58:13.043Z,76.20
2019-01-25T23:03:55.457Z,75.74
2019-01-25T23:06:43.157Z,76.04
2019-01-25T23:09:19.292Z,75.55
2019-01-25T23:11:52.809Z,74.85
2019-01-25T23:14:27.439Z,74.27
2019-01-25T23:17:01.091Z,74.21
2019-01-25T23:22:12.045Z,73.78
2019-01-25T23:24:44.075Z,73.43
2019-01-25T23:27:17.842Z,72.75
2019-01-25T23:29:51.716Z,72.05
2019-01-25T23:35:03.877Z,71.20
2019-01-25T23:37:44.507Z,70.31
2019-01-25T23:40:17.905Z,69.89
2019-01-25T23:42:52.645Z,70.22
2019-01-25T23:45:25.410Z,69.64
2019-01-25T23:48:04.573Z,69.18
2019-01-25T23:50:40.226Z,70.85
2019-01-25T23:53:13.099Z,69.92
2019-01-25T23:55:47.193Z,69.40
2019-01-25T23:58:21.818Z,69.28
